createdAt,value
2018-09-08T00:00:02.832Z,87
2018-09-08T00:05:03.146Z,87.6
2018-09-08T00:10:03.028Z,86.8
2018-09-08T00:15:03.319Z,88
2018-09-08T00:20:15.378Z,87.8
2018-09-08T00:25:03.058Z,87.8
2018-09-08T00:30:03.349Z,87.6
2018-09-08T00:35:02.695Z,86.4
2018-09-08T00:40:02.668Z,88.2
2018-09-08T00:45:02.909Z,89.2
2018-09-08T00:50:03.182Z,90.2
2018-09-08T00:55:02.528Z,90.1
2018-09-08T01:00:02.881Z,90.2
2018-09-08T01:05:03.147Z,90.7
2018-09-08T01:10:02.962Z,91.2
2018-09-08T01:15:03.332Z,91
2018-09-08T01:20:02.698Z,91.7
2018-09-08T01:25:03.003Z,92
2018-09-08T01:30:03.284Z,92.6
2018-09-08T01:35:02.622Z,92.7
2018-09-08T01:40:03.395Z,93.1
2018-09-08T01:45:02.783Z,93.3
2018-09-08T01:50:03.076Z,93.8
2018-09-08T01:55:03.380Z,94.2
2018-09-08T02:00:05.340Z,95
2018-09-08T02:05:03.063Z,95
2018-09-08T02:10:02.714Z,95
2018-09-08T02:15:03.120Z,94.9
2018-09-08T02:20:03.498Z,94.7
2018-09-08T02:25:02.727Z,95.1
2018-09-08T02:30:02.956Z,95.6
2018-09-08T02:35:03.352Z,96.1
2018-09-08T02:40:03.006Z,96.6
2018-09-08T02:45:03.310Z,97.1
2018-09-08T02:50:02.691Z,97.5
2018-09-08T02:55:02.984Z,98.1
2018-09-08T03:00:05.768Z,98.7
2018-09-08T03:05:02.670Z,98.7
2018-09-08T03:10:03.385Z,99.3
2018-09-08T03:15:02.718Z,99.7
2018-09-08T03:20:05.676Z,99.9
2018-09-08T03:25:03.423Z,99.9
2018-09-08T03:30:02.775Z,99.9
2018-09-08T03:35:03.064Z,99.9
2018-09-08T03:40:02.875Z,99.9
2018-09-08T03:45:03.175Z,99.9
2018-09-08T03:50:03.429Z,99.9
2018-09-08T03:55:02.701Z,99.9
2018-09-08T04:00:02.963Z,99.9
2018-09-08T04:05:05.725Z,99.9
2018-09-08T04:10:03.360Z,99.9
2018-09-08T04:15:02.682Z,99.9
2018-09-08T04:20:05.583Z,99.9
2018-09-08T04:25:03.389Z,99.9
2018-09-08T04:30:02.745Z,99.9
2018-09-08T04:35:02.992Z,99.9
2018-09-08T04:40:02.689Z,99.9
2018-09-08T04:45:02.914Z,99.9
2018-09-08T04:50:03.175Z,99.9
2018-09-08T04:55:03.477Z,99.9
2018-09-08T05:00:02.736Z,99.9
2018-09-08T05:05:05.640Z,99.9
2018-09-08T05:10:03.334Z,99.9
2018-09-08T05:15:02.758Z,99.9
2018-09-08T05:20:03.075Z,99.9
2018-09-08T05:25:03.361Z,99.9
2018-09-08T05:30:02.706Z,99.9
2018-09-08T05:35:03.183Z,99.9
2018-09-08T05:40:02.883Z,99.9
2018-09-08T05:45:03.186Z,99.9
2018-09-08T05:50:03.480Z,99.9
2018-09-08T05:55:02.704Z,99.9
2018-09-08T06:00:03.169Z,99.9
2018-09-08T06:05:03.447Z,99.9
2018-09-08T06:10:05.724Z,99.9
2018-09-08T06:15:02.595Z,99.9
2018-09-08T06:20:03.126Z,99.9
2018-09-08T06:25:05.169Z,98.7
2018-09-08T06:30:02.593Z,98.6
2018-09-08T06:35:02.878Z,96.9
2018-09-08T06:40:07.784Z,93.9
2018-09-08T06:45:03.216Z,93.8
2018-09-08T06:50:03.518Z,92.9
2018-09-08T06:55:03.043Z,92
2018-09-08T07:00:05.913Z,89.6
2018-09-08T07:05:02.678Z,89.6
2018-09-08T07:10:03.425Z,89.1
2018-09-08T07:15:02.909Z,86.6
2018-09-08T07:20:03.363Z,83.4
2018-09-08T07:25:02.776Z,84.3
2018-09-08T07:30:03.232Z,82
2018-09-08T07:35:05.015Z,79.1
2018-09-08T07:40:02.738Z,79
2018-09-08T07:45:03.125Z,82.6
2018-09-08T07:50:06.031Z,70.4
2018-09-08T07:55:02.889Z,70.5
2018-09-08T08:00:03.230Z,73.1
2018-09-08T08:05:02.651Z,68.6
2018-09-08T08:10:03.418Z,69
2018-09-08T08:15:02.782Z,68
2018-09-08T08:20:03.133Z,65.8
2018-09-08T08:25:03.483Z,66.6
2018-09-08T08:30:02.784Z,66.7
2018-09-08T08:35:03.160Z,67.9
2018-09-08T08:40:05.483Z,66.7
2018-09-08T08:45:03.186Z,66.7
2018-09-08T08:50:02.478Z,68.8
2018-09-08T08:55:05.559Z,67.7
2018-09-08T09:00:02.815Z,67.6
2018-09-08T09:05:03.142Z,68.4
2018-09-08T09:10:05.569Z,65.7
2018-09-08T09:15:04.558Z,65.8
2018-09-08T09:20:03.096Z,64.2
2018-09-08T09:25:03.311Z,63.7
2018-09-08T09:30:02.641Z,64
2018-09-08T09:35:03.039Z,62.2
2018-09-08T09:40:02.748Z,62.6
2018-09-08T09:45:03.429Z,64.2
2018-09-08T09:50:02.722Z,62.2
2018-09-08T09:55:03.034Z,63.3
2018-09-08T10:00:03.345Z,62.1
2018-09-08T10:05:02.705Z,61.6
2018-09-08T10:10:03.444Z,59.8
2018-09-08T10:15:02.815Z,60.9
2018-09-08T10:20:03.143Z,59.8
2018-09-08T10:25:03.460Z,61.3
2018-09-08T10:30:04.006Z,58.7
2018-09-08T10:35:02.795Z,58
2018-09-08T10:40:02.658Z,56.3
2018-09-08T10:45:10.825Z,58.3
2018-09-08T10:50:03.124Z,58.3
2018-09-08T10:55:02.536Z,58.4
2018-09-08T11:00:02.922Z,56.8
2018-09-08T11:05:03.450Z,55.8
2018-09-08T11:10:05.848Z,56.8
2018-09-08T11:15:02.600Z,56.8
2018-09-08T11:20:03.040Z,55.4
2018-09-08T11:25:03.348Z,54.4
2018-09-08T11:30:02.738Z,54.8
2018-09-08T11:35:05.619Z,54.9
2018-09-08T11:40:03.045Z,55
2018-09-08T11:45:03.508Z,54.6
2018-09-08T11:50:02.788Z,54.1
2018-09-08T11:55:03.282Z,54.5
2018-09-08T12:00:02.616Z,53.6
2018-09-08T12:05:03.398Z,54.5
2018-09-08T12:10:03.366Z,53.1
2018-09-08T12:15:02.811Z,52.2
2018-09-08T12:20:03.145Z,51.8
2018-09-08T12:25:02.917Z,52.1
2018-09-08T12:30:03.259Z,51
2018-09-08T12:35:02.708Z,49.8
2018-09-08T12:40:02.437Z,48.6
2018-09-08T12:45:02.839Z,47.3
2018-09-08T12:50:03.216Z,45.8
2018-09-08T12:55:02.596Z,43.5
2018-09-08T13:00:02.994Z,42.1
2018-09-08T13:05:03.436Z,42.3
2018-09-08T13:10:03.293Z,39.4
2018-09-08T13:15:03.107Z,39.4
2018-09-08T13:20:02.681Z,39.9
2018-09-08T13:25:03.020Z,40
2018-09-08T13:30:03.375Z,40.4
2018-09-08T13:35:02.792Z,39.4
2018-09-08T13:40:02.802Z,37.8
2018-09-08T13:45:03.192Z,36.6
2018-09-08T13:50:03.548Z,34.4
2018-09-08T13:55:02.990Z,34.5
2018-09-08T14:00:03.451Z,32.1
2018-09-08T14:05:05.630Z,31.9
2018-09-08T14:10:03.394Z,31.8
2018-09-08T14:15:02.899Z,31.4
2018-09-08T14:20:03.407Z,30.5
2018-09-08T14:25:02.720Z,31.4
2018-09-08T14:30:03.114Z,29.8
2018-09-08T14:35:02.656Z,31.3
2018-09-08T14:40:05.072Z,31.6
2018-09-08T14:45:02.956Z,31.5
2018-09-08T14:50:03.247Z,31
2018-09-08T14:55:02.712Z,29.8
2018-09-08T15:00:03.239Z,30.2
2018-09-08T15:05:02.970Z,32
2018-09-08T15:10:02.728Z,33.5
2018-09-08T15:15:03.213Z,36.8
2018-09-08T15:20:02.690Z,37.8
2018-09-08T15:25:03.274Z,39.9
2018-09-08T15:30:02.764Z,40.6
2018-09-08T15:35:05.698Z,39.3
2018-09-08T15:40:03.556Z,39.3
2018-09-08T15:45:03.205Z,39.2
2018-09-08T15:50:03.521Z,39.3
2018-09-08T15:55:02.919Z,40
2018-09-08T16:00:03.429Z,40.4
2018-09-08T16:05:03.046Z,39.9
2018-09-08T16:10:02.881Z,41.3
2018-09-08T16:15:03.316Z,41.5
2018-09-08T16:20:07.797Z,41.7
2018-09-08T16:25:03.245Z,41.8
2018-09-08T16:30:02.549Z,42.5
2018-09-08T16:35:02.851Z,43.7
2018-09-08T16:40:05.186Z,43.7
2018-09-08T16:45:02.503Z,43.7
2018-09-08T16:50:05.498Z,45.9
2018-09-08T16:55:02.592Z,45.9
2018-09-08T17:00:02.909Z,44.2
2018-09-08T17:05:03.668Z,45.8
2018-09-08T17:10:03.442Z,48.5
2018-09-08T17:15:02.915Z,50.7
2018-09-08T17:20:03.364Z,51.2
2018-09-08T17:25:02.712Z,52.6
2018-09-08T17:30:03.285Z,53.2
2018-09-08T17:35:02.825Z,52.2
2018-09-08T17:40:02.664Z,55.3
2018-09-08T17:45:02.978Z,55.3
2018-09-08T17:50:03.252Z,53.7
2018-09-08T17:55:02.617Z,56.9
2018-09-08T18:00:02.901Z,57.7
2018-09-08T18:05:03.379Z,59.7
2018-09-08T18:10:03.214Z,61.6
2018-09-08T18:15:02.540Z,63.4
2018-09-08T18:20:03.025Z,64
2018-09-08T18:25:03.365Z,65.2
2018-09-08T18:30:02.789Z,66.8
2018-09-08T18:35:03.123Z,67
2018-09-08T18:40:05.545Z,68.4
2018-09-08T18:45:03.238Z,68.4
2018-09-08T18:50:02.704Z,71.6
2018-09-08T18:55:03.017Z,72.9
2018-09-08T19:00:03.303Z,73.9
2018-09-08T19:05:02.738Z,75.6
2018-09-08T19:10:02.547Z,76.8
2018-09-08T19:15:02.876Z,78.1
2018-09-08T19:20:03.484Z,79.2
2018-09-08T19:25:05.140Z,81.1
2018-09-08T19:30:03.482Z,81
2018-09-08T19:35:02.792Z,81.4
2018-09-08T19:40:02.660Z,82
2018-09-08T19:45:03.060Z,83.7
2018-09-08T19:50:03.404Z,84.8
2018-09-08T19:55:03.180Z,85.4
2018-09-08T20:00:02.510Z,85.7
2018-09-08T20:05:02.836Z,85.6
2018-09-08T20:10:02.683Z,86.9
2018-09-08T20:15:02.936Z,87.3
2018-09-08T20:20:03.366Z,87.7
2018-09-08T20:25:02.682Z,88.9
2018-09-08T20:30:03.205Z,90
2018-09-08T20:35:02.833Z,90
2018-09-08T20:40:02.645Z,90.4
2018-09-08T20:45:02.922Z,90.9
2018-09-08T20:50:03.233Z,91
2018-09-08T20:55:03.003Z,90.9
2018-09-08T21:00:03.298Z,91.1
2018-09-08T21:05:02.662Z,91.5
2018-09-08T21:10:03.376Z,92
2018-09-08T21:15:05.300Z,92
2018-09-08T21:20:02.699Z,92.1
2018-09-08T21:25:02.987Z,92.1
2018-09-08T21:30:03.357Z,91.6
2018-09-08T21:35:02.694Z,91.6
2018-09-08T21:40:03.383Z,91.4
2018-09-08T21:45:02.770Z,91.4
2018-09-08T21:50:03.077Z,90.4
2018-09-08T21:55:03.395Z,90.2
2018-09-08T22:00:02.657Z,91
2018-09-08T22:05:03.019Z,91.3
2018-09-08T22:10:02.689Z,91.5
2018-09-08T22:15:02.987Z,91.8
2018-09-08T22:20:08.366Z,92.7
2018-09-08T22:25:02.590Z,92.7
2018-09-08T22:30:02.900Z,92.4
2018-09-08T22:35:03.153Z,92.3
2018-09-08T22:40:02.910Z,91.8
2018-09-08T22:45:03.257Z,90.4
2018-09-08T22:50:06.065Z,90.2
2018-09-08T22:55:02.767Z,90.2
2018-09-08T23:00:05.660Z,90
2018-09-08T23:05:03.407Z,90
2018-09-08T23:10:03.083Z,89.4
2018-09-08T23:15:02.518Z,88.4
2018-09-08T23:20:02.982Z,87.2
2018-09-08T23:25:03.285Z,86.9
2018-09-08T23:30:02.619Z,87.5
2018-09-08T23:35:05.559Z,85.3
2018-09-08T23:40:03.329Z,85.2
2018-09-08T23:45:02.580Z,84.9
2018-09-08T23:50:02.866Z,85.7
2018-09-08T23:55:03.290Z,85.6
